createdAt,value
2018-11-20T00:00:24.837Z,388
2018-11-20T00:01:32.047Z,387
2018-11-20T00:02:39.264Z,388
2018-11-20T00:03:46.197Z,388
2018-11-20T00:04:53.417Z,388
2018-11-20T00:06:00.614Z,388
2018-11-20T00:07:07.560Z,388
2018-11-20T00:08:14.766Z,387
2018-11-20T00:09:21.715Z,387
2018-11-20T00:10:28.914Z,387
2018-11-20T00:11:36.135Z,387
2018-11-20T00:12:43.062Z,387
2018-11-20T00:13:50.004Z,386
2018-11-20T00:14:56.932Z,385
2018-11-20T00:16:03.879Z,386
2018-11-20T00:17:10.522Z,386
2018-11-20T00:18:17.472Z,385
2018-11-20T00:19:24.129Z,385
2018-11-20T00:20:31.067Z,385
2018-11-20T00:21:38.272Z,385
2018-11-20T00:22:45.220Z,385
2018-11-20T00:23:52.135Z,385
2018-11-20T00:24:59.083Z,385
2018-11-20T00:26:06.011Z,385
2018-11-20T00:27:12.682Z,385
2018-11-20T00:28:19.876Z,384
2018-11-20T00:29:26.542Z,384
2018-11-20T00:30:33.737Z,385
2018-11-20T00:31:40.677Z,384
2018-11-20T00:32:47.614Z,384
2018-11-20T00:33:54.831Z,385
2018-11-20T00:35:01.787Z,384
2018-11-20T00:36:09.006Z,383
2018-11-20T00:37:16.204Z,384
2018-11-20T00:38:22.867Z,383
2018-11-20T00:39:29.538Z,383
2018-11-20T00:40:36.761Z,382
2018-11-20T00:41:43.416Z,382
2018-11-20T00:42:50.075Z,381
2018-11-20T00:43:57.005Z,382
2018-11-20T00:45:04.221Z,382
2018-11-20T00:46:11.202Z,382
2018-11-20T00:47:18.143Z,381
2018-11-20T00:48:25.069Z,382
2018-11-20T00:49:32.285Z,381
2018-11-20T00:50:38.938Z,381
2018-11-20T00:51:46.151Z,381
2018-11-20T00:52:53.351Z,382
2018-11-20T00:54:00.293Z,382
2018-11-20T00:55:07.219Z,381
2018-11-20T00:56:14.978Z,381
2018-11-20T00:57:21.902Z,380
2018-11-20T00:58:28.783Z,380
2018-11-20T00:59:35.996Z,381
2018-11-20T01:00:42.951Z,381
2018-11-20T01:01:49.606Z,381
2018-11-20T01:02:56.833Z,380
2018-11-20T01:04:03.484Z,380
2018-11-20T01:05:10.700Z,380
2018-11-20T01:06:17.621Z,380
2018-11-20T01:07:24.842Z,381
2018-11-20T01:08:32.041Z,381
2018-11-20T01:09:39.257Z,381
2018-11-20T01:10:45.914Z,380
2018-11-20T01:11:52.851Z,381
2018-11-20T01:13:00.056Z,381
2018-11-20T01:14:06.718Z,381
2018-11-20T01:15:13.635Z,381
2018-11-20T01:16:20.030Z,381
2018-11-20T01:17:26.408Z,381
2018-11-20T01:18:33.625Z,381
2018-11-20T01:19:39.999Z,380
2018-11-20T01:20:46.942Z,380
2018-11-20T01:21:54.144Z,380
2018-11-20T01:23:00.810Z,380
2018-11-20T01:24:07.738Z,380
2018-11-20T01:25:14.378Z,380
2018-11-20T01:26:21.577Z,379
2018-11-20T01:27:28.242Z,379
2018-11-20T01:28:35.177Z,379
2018-11-20T01:29:42.391Z,379
2018-11-20T01:30:49.585Z,379
2018-11-20T01:31:56.247Z,380
2018-11-20T01:33:03.450Z,379
2018-11-20T01:34:10.664Z,380
2018-11-20T01:35:17.315Z,379
2018-11-20T01:36:24.245Z,380
2018-11-20T01:37:31.448Z,380
2018-11-20T01:38:38.387Z,380
2018-11-20T01:39:45.311Z,379
2018-11-20T01:40:52.254Z,379
2018-11-20T01:41:59.455Z,379
2018-11-20T01:43:06.126Z,379
2018-11-20T01:44:13.047Z,380
2018-11-20T01:45:20.266Z,379
2018-11-20T01:46:27.193Z,379
2018-11-20T01:47:34.400Z,379
2018-11-20T01:48:41.603Z,380
2018-11-20T01:49:48.553Z,379
2018-11-20T01:50:55.206Z,379
2018-11-20T01:52:02.156Z,379
2018-11-20T01:53:09.351Z,378
2018-11-20T01:54:16.576Z,378
2018-11-20T01:55:23.824Z,377
2018-11-20T01:56:30.765Z,377
2018-11-20T01:57:37.967Z,377
2018-11-20T01:58:45.179Z,377
2018-11-20T01:59:52.389Z,376
2018-11-20T02:00:59.603Z,376
2018-11-20T02:02:06.809Z,376
2018-11-20T02:03:13.754Z,376
2018-11-20T02:04:20.676Z,376
2018-11-20T02:05:27.890Z,376
2018-11-20T02:06:34.558Z,376
2018-11-20T02:07:41.769Z,375
2018-11-20T02:08:48.979Z,375
2018-11-20T02:09:56.210Z,375
2018-11-20T02:11:03.140Z,375
2018-11-20T02:12:09.810Z,375
2018-11-20T02:13:16.456Z,375
2018-11-20T02:14:23.394Z,375
2018-11-20T02:15:30.331Z,375
2018-11-20T02:16:37.255Z,375
2018-11-20T02:17:44.460Z,374
2018-11-20T02:18:51.398Z,374
2018-11-20T02:19:58.596Z,375
2018-11-20T02:21:05.540Z,374
2018-11-20T02:22:12.192Z,374
2018-11-20T02:23:19.405Z,374
2018-11-20T02:24:26.605Z,374
2018-11-20T02:25:33.538Z,374
2018-11-20T02:26:40.743Z,374
2018-11-20T02:27:47.691Z,374
2018-11-20T02:28:54.893Z,374
2018-11-20T02:30:02.112Z,373
2018-11-20T02:31:09.039Z,374
2018-11-20T02:32:15.990Z,374
2018-11-20T02:33:22.370Z,373
2018-11-20T02:34:29.566Z,374
2018-11-20T02:35:36.208Z,373
2018-11-20T02:36:43.437Z,374
2018-11-20T02:37:50.366Z,373
2018-11-20T02:38:57.310Z,374
2018-11-20T02:40:04.248Z,374
2018-11-20T02:41:11.465Z,373
2018-11-20T02:42:18.389Z,373
2018-11-20T02:43:25.314Z,373
2018-11-20T02:44:32.553Z,372
2018-11-20T02:45:39.490Z,373
2018-11-20T02:46:46.876Z,373
2018-11-20T02:47:53.819Z,374
2018-11-20T02:49:01.040Z,373
2018-11-20T02:50:08.252Z,373
2018-11-20T02:51:15.258Z,373
2018-11-20T02:52:22.228Z,373
2018-11-20T02:53:29.442Z,373
2018-11-20T02:54:36.397Z,373
2018-11-20T02:55:43.526Z,373
2018-11-20T02:56:49.921Z,373
2018-11-20T02:57:57.191Z,372
2018-11-20T02:59:03.592Z,372
2018-11-20T03:00:10.515Z,373
2018-11-20T03:01:17.452Z,373
2018-11-20T03:02:24.374Z,372
2018-11-20T03:03:31.439Z,372
2018-11-20T03:04:38.323Z,373
2018-11-20T03:05:44.998Z,374
2018-11-20T03:06:51.643Z,373
2018-11-20T03:07:58.583Z,373
2018-11-20T03:09:04.970Z,374
2018-11-20T03:10:12.181Z,374
2018-11-20T03:11:19.380Z,374
2018-11-20T03:12:26.338Z,373
2018-11-20T03:13:33.294Z,373
2018-11-20T03:14:39.938Z,373
2018-11-20T03:15:46.864Z,373
2018-11-20T03:16:53.535Z,373
2018-11-20T03:18:00.470Z,373
2018-11-20T03:19:07.409Z,374
2018-11-20T03:20:14.558Z,373
2018-11-20T03:21:21.231Z,373
2018-11-20T03:22:28.437Z,372
2018-11-20T03:23:35.652Z,373
2018-11-20T03:24:42.854Z,372
2018-11-20T03:25:50.073Z,372
2018-11-20T03:26:57.474Z,372
2018-11-20T03:28:05.008Z,371
2018-11-20T03:29:11.935Z,372
2018-11-20T03:30:19.153Z,372
2018-11-20T03:31:25.798Z,371
2018-11-20T03:32:33.012Z,371
2018-11-20T03:33:39.674Z,371
2018-11-20T03:34:46.607Z,371
2018-11-20T03:35:53.582Z,371
2018-11-20T03:37:00.796Z,371
2018-11-20T03:38:07.998Z,371
2018-11-20T03:39:15.221Z,371
2018-11-20T03:40:22.198Z,371
2018-11-20T03:41:29.147Z,372
2018-11-20T03:42:36.089Z,371
2018-11-20T03:43:43.033Z,371
2018-11-20T03:44:50.236Z,371
2018-11-20T03:45:57.179Z,371
2018-11-20T03:47:04.102Z,371
2018-11-20T03:48:10.487Z,371
2018-11-20T03:49:17.135Z,371
2018-11-20T03:50:23.804Z,371
2018-11-20T03:51:31.020Z,370
2018-11-20T03:52:37.950Z,370
2018-11-20T03:53:45.666Z,371
2018-11-20T03:54:52.884Z,371
2018-11-20T03:55:59.816Z,370
2018-11-20T03:57:06.751Z,370
2018-11-20T03:58:13.956Z,370
2018-11-20T03:59:21.180Z,370
2018-11-20T04:00:28.410Z,370
2018-11-20T04:01:35.608Z,370
2018-11-20T04:02:42.814Z,370
2018-11-20T04:03:49.753Z,370
2018-11-20T04:04:56.678Z,370
2018-11-20T04:06:03.892Z,370
2018-11-20T04:07:10.819Z,370
2018-11-20T04:08:18.053Z,370
2018-11-20T04:09:24.976Z,370
2018-11-20T04:10:31.906Z,370
2018-11-20T04:11:39.116Z,371
2018-11-20T04:12:46.062Z,371
2018-11-20T04:13:52.984Z,371
2018-11-20T04:14:59.647Z,371
2018-11-20T04:16:06.571Z,371
2018-11-20T04:17:13.787Z,371
2018-11-20T04:18:20.998Z,371
2018-11-20T04:19:27.943Z,372
2018-11-20T04:20:34.605Z,372
2018-11-20T04:21:41.823Z,372
2018-11-20T04:22:48.743Z,372
2018-11-20T04:23:55.962Z,372
2018-11-20T04:25:02.892Z,372
2018-11-20T04:26:09.834Z,372
2018-11-20T04:27:16.756Z,373
2018-11-20T04:28:23.147Z,373
2018-11-20T04:29:29.809Z,372
2018-11-20T04:30:36.731Z,372
2018-11-20T04:31:43.658Z,372
2018-11-20T04:32:50.881Z,372
2018-11-20T04:33:57.804Z,372
2018-11-20T04:35:04.761Z,372
2018-11-20T04:36:11.688Z,372
2018-11-20T04:37:18.349Z,372
2018-11-20T04:38:25.559Z,373
2018-11-20T04:39:32.505Z,373
2018-11-20T04:40:39.436Z,372
2018-11-20T04:41:46.668Z,372
2018-11-20T04:42:53.866Z,372
2018-11-20T04:44:01.085Z,372
2018-11-20T04:45:07.733Z,372
2018-11-20T04:46:14.674Z,371
2018-11-20T04:47:21.598Z,371
2018-11-20T04:48:28.543Z,372
2018-11-20T04:49:35.480Z,372
2018-11-20T04:50:42.152Z,373
2018-11-20T04:51:49.090Z,373
2018-11-20T04:52:56.316Z,373
2018-11-20T04:54:03.514Z,373
2018-11-20T04:55:10.450Z,373
2018-11-20T04:56:17.109Z,373
2018-11-20T04:57:24.391Z,374
2018-11-20T04:58:30.765Z,374
2018-11-20T04:59:37.709Z,374
2018-11-20T05:00:44.636Z,374
2018-11-20T05:01:51.842Z,374
2018-11-20T05:02:59.049Z,373
2018-11-20T05:04:06.263Z,374
2018-11-20T05:05:13.469Z,374
2018-11-20T05:06:20.133Z,374
2018-11-20T05:07:27.337Z,374
2018-11-20T05:08:34.562Z,374
2018-11-20T05:09:41.500Z,375
2018-11-20T05:10:48.459Z,375
2018-11-20T05:11:55.656Z,375
2018-11-20T05:13:02.408Z,375
2018-11-20T05:14:09.333Z,375
2018-11-20T05:15:16.010Z,376
2018-11-20T05:16:22.944Z,375
2018-11-20T05:17:29.886Z,375
2018-11-20T05:18:36.549Z,375
2018-11-20T05:19:43.473Z,374
2018-11-20T05:20:50.695Z,375
2018-11-20T05:21:57.674Z,374
2018-11-20T05:23:04.334Z,374
2018-11-20T05:24:11.020Z,374
2018-11-20T05:25:17.947Z,374
2018-11-20T05:26:25.168Z,374
2018-11-20T05:27:32.112Z,375
2018-11-20T05:28:39.312Z,374
2018-11-20T05:29:46.245Z,374
2018-11-20T05:30:53.333Z,374
2018-11-20T05:32:00.285Z,373
2018-11-20T05:33:07.503Z,373
2018-11-20T05:34:14.707Z,373
2018-11-20T05:35:21.922Z,374
2018-11-20T05:36:28.570Z,374
2018-11-20T05:37:35.510Z,373
2018-11-20T05:38:42.153Z,373
2018-11-20T05:39:49.105Z,373
2018-11-20T05:40:56.306Z,372
2018-11-20T05:42:03.526Z,372
2018-11-20T05:43:10.737Z,371
2018-11-20T05:44:17.950Z,371
2018-11-20T05:45:24.880Z,371
2018-11-20T05:46:32.102Z,371
2018-11-20T05:47:39.349Z,371
2018-11-20T05:48:46.568Z,370
2018-11-20T05:49:53.496Z,370
2018-11-20T05:51:00.713Z,370
2018-11-20T05:52:07.929Z,370
2018-11-20T05:53:14.868Z,370
2018-11-20T05:54:21.820Z,370
2018-11-20T05:55:28.489Z,370
2018-11-20T05:56:35.694Z,370
2018-11-20T05:57:42.638Z,370
2018-11-20T05:58:49.839Z,370
2018-11-20T05:59:57.058Z,369
2018-11-20T06:01:03.982Z,369
2018-11-20T06:02:10.922Z,369
2018-11-20T06:03:17.568Z,369
2018-11-20T06:04:24.792Z,369
2018-11-20T06:05:31.722Z,369
2018-11-20T06:06:38.959Z,369
2018-11-20T06:07:46.166Z,368
2018-11-20T06:08:53.113Z,369
2018-11-20T06:10:00.309Z,369
2018-11-20T06:11:07.248Z,369
2018-11-20T06:12:14.445Z,368
2018-11-20T06:13:21.387Z,368
2018-11-20T06:14:28.325Z,368
2018-11-20T06:15:35.000Z,369
2018-11-20T06:16:41.924Z,369
2018-11-20T06:17:49.133Z,369
2018-11-20T06:18:55.972Z,369
2018-11-20T06:20:03.322Z,369
2018-11-20T06:21:10.522Z,368
2018-11-20T06:22:17.745Z,368
2018-11-20T06:23:24.665Z,368
2018-11-20T06:24:31.601Z,368
2018-11-20T06:25:38.257Z,368
2018-11-20T06:26:45.479Z,369
2018-11-20T06:27:52.677Z,368
2018-11-20T06:28:59.665Z,368
2018-11-20T06:30:06.920Z,368
2018-11-20T06:31:13.584Z,368
2018-11-20T06:32:20.512Z,368
2018-11-20T06:33:27.448Z,368
2018-11-20T06:34:34.566Z,368
2018-11-20T06:35:41.490Z,368
2018-11-20T06:36:48.698Z,368
2018-11-20T06:37:55.628Z,368
2018-11-20T06:39:02.832Z,367
2018-11-20T06:40:10.051Z,367
2018-11-20T06:41:17.327Z,368
2018-11-20T06:42:24.013Z,367
2018-11-20T06:43:30.940Z,368
2018-11-20T06:44:37.606Z,367
2018-11-20T06:45:44.807Z,367
2018-11-20T06:46:52.009Z,367
2018-11-20T06:47:58.936Z,368
2018-11-20T06:49:05.870Z,367
2018-11-20T06:50:12.803Z,367
2018-11-20T06:51:20.020Z,367
2018-11-20T06:52:26.943Z,367
2018-11-20T06:53:34.299Z,367
2018-11-20T06:54:41.672Z,368
2018-11-20T06:55:48.877Z,367
2018-11-20T06:56:56.091Z,367
2018-11-20T06:58:03.053Z,367
2018-11-20T06:59:09.987Z,367
2018-11-20T07:00:16.646Z,367
2018-11-20T07:01:23.788Z,367
2018-11-20T07:02:31.079Z,367
2018-11-20T07:03:38.038Z,367
2018-11-20T07:04:44.963Z,368
2018-11-20T07:05:52.165Z,367
2018-11-20T07:06:58.893Z,367
2018-11-20T07:08:07.034Z,367
2018-11-20T07:09:14.561Z,367
2018-11-20T07:10:21.770Z,367
2018-11-20T07:11:28.717Z,367
2018-11-20T07:12:35.930Z,367
2018-11-20T07:13:43.139Z,367
2018-11-20T07:14:50.332Z,367
2018-11-20T07:15:58.788Z,366
2018-11-20T07:17:06.697Z,366
2018-11-20T07:18:13.637Z,367
2018-11-20T07:19:20.845Z,367
2018-11-20T07:20:28.053Z,367
2018-11-20T07:21:35.249Z,367
2018-11-20T07:22:42.650Z,367
2018-11-20T07:23:49.425Z,367
2018-11-20T07:24:56.643Z,366
2018-11-20T07:26:03.847Z,366
2018-11-20T07:27:11.280Z,367
2018-11-20T07:28:17.937Z,367
2018-11-20T07:29:24.975Z,367
2018-11-20T07:30:32.495Z,366
2018-11-20T07:31:40.267Z,366
2018-11-20T07:32:47.691Z,365
2018-11-20T07:33:54.618Z,366
2018-11-20T07:35:01.788Z,366
2018-11-20T07:36:09.693Z,366
2018-11-20T07:37:18.531Z,366
2018-11-20T07:38:26.439Z,366
2018-11-20T07:39:33.686Z,365
2018-11-20T07:40:40.637Z,365
2018-11-20T07:41:47.838Z,364
2018-11-20T07:42:55.058Z,365
2018-11-20T07:44:02.330Z,364
2018-11-20T07:45:09.660Z,364
2018-11-20T07:46:16.580Z,364
2018-11-20T07:47:23.515Z,364
2018-11-20T07:48:30.444Z,364
2018-11-20T07:49:37.656Z,364
2018-11-20T07:50:44.873Z,364
2018-11-20T07:51:51.809Z,364
2018-11-20T07:52:59.010Z,364
2018-11-20T07:54:06.229Z,365
2018-11-20T07:55:12.722Z,364
2018-11-20T07:56:20.665Z,364
2018-11-20T07:57:27.684Z,364
2018-11-20T07:58:34.660Z,364
2018-11-20T07:59:41.864Z,363
2018-11-20T08:00:48.799Z,363
2018-11-20T08:01:55.998Z,363
2018-11-20T08:03:02.941Z,363
2018-11-20T08:04:10.143Z,364
2018-11-20T08:05:17.388Z,363
2018-11-20T08:06:24.590Z,363
2018-11-20T08:07:31.808Z,363
2018-11-20T08:08:39.068Z,363
2018-11-20T08:09:46.922Z,363
2018-11-20T08:10:54.145Z,362
2018-11-20T08:12:01.522Z,363
2018-11-20T08:13:08.545Z,362
2018-11-20T08:14:15.484Z,362
2018-11-20T08:15:22.927Z,363
2018-11-20T08:16:30.230Z,362
2018-11-20T08:17:37.438Z,362
2018-11-20T08:18:44.657Z,363
2018-11-20T08:19:51.602Z,363
2018-11-20T08:20:58.816Z,362
2018-11-20T08:22:06.025Z,362
2018-11-20T08:23:12.440Z,362
2018-11-20T08:24:19.637Z,362
2018-11-20T08:25:26.540Z,362
2018-11-20T08:26:33.841Z,362
2018-11-20T08:27:40.720Z,362
2018-11-20T08:28:48.050Z,362
2018-11-20T08:29:54.766Z,362
2018-11-20T08:31:02.271Z,362
2018-11-20T08:32:09.606Z,362
2018-11-20T08:33:16.538Z,361
2018-11-20T08:34:24.104Z,362
2018-11-20T08:35:31.510Z,361
2018-11-20T08:36:38.456Z,362
2018-11-20T08:37:45.667Z,361
2018-11-20T08:38:52.609Z,362
2018-11-20T08:39:58.994Z,362
2018-11-20T08:41:06.215Z,361
2018-11-20T08:42:13.649Z,361
2018-11-20T08:43:20.728Z,361
2018-11-20T08:44:27.937Z,361
2018-11-20T08:45:34.879Z,361
2018-11-20T08:46:41.799Z,361
2018-11-20T08:47:49.488Z,361
2018-11-20T08:48:56.747Z,361
2018-11-20T08:50:03.669Z,361
2018-11-20T08:51:10.867Z,361
2018-11-20T08:52:18.085Z,361
2018-11-20T08:53:25.362Z,361
2018-11-20T08:54:32.626Z,361
2018-11-20T08:55:39.825Z,361
2018-11-20T08:56:47.046Z,361
2018-11-20T08:57:53.976Z,360
2018-11-20T08:59:01.205Z,361
2018-11-20T09:00:08.138Z,361
2018-11-20T09:01:15.351Z,361
2018-11-20T09:02:22.005Z,361
2018-11-20T09:03:28.934Z,361
2018-11-20T09:04:35.877Z,361
2018-11-20T09:05:42.529Z,361
2018-11-20T09:06:49.733Z,361
2018-11-20T09:07:56.965Z,361
2018-11-20T09:09:03.343Z,361
2018-11-20T09:10:10.489Z,360
2018-11-20T09:11:17.734Z,360
2018-11-20T09:12:24.408Z,360
2018-11-20T09:13:31.638Z,360
2018-11-20T09:14:38.860Z,361
2018-11-20T09:15:46.063Z,360
2018-11-20T09:16:52.706Z,360
2018-11-20T09:18:00.157Z,360
2018-11-20T09:19:07.151Z,360
2018-11-20T09:20:14.033Z,360
2018-11-20T09:21:21.858Z,360
2018-11-20T09:22:29.067Z,360
2018-11-20T09:23:36.047Z,360
2018-11-20T09:24:42.977Z,360
2018-11-20T09:25:50.377Z,360
2018-11-20T09:26:57.361Z,360
2018-11-20T09:28:04.566Z,360
2018-11-20T09:29:12.082Z,360
2018-11-20T09:30:19.024Z,360
2018-11-20T09:31:26.223Z,360
2018-11-20T09:32:32.616Z,360
2018-11-20T09:33:39.546Z,360
2018-11-20T09:34:46.002Z,360
2018-11-20T09:35:53.277Z,360
2018-11-20T09:37:00.497Z,360
2018-11-20T09:38:07.702Z,360
2018-11-20T09:39:14.927Z,360
2018-11-20T09:40:21.579Z,360
2018-11-20T09:41:28.517Z,360
2018-11-20T09:42:35.162Z,359
2018-11-20T09:43:42.110Z,359
2018-11-20T09:44:49.312Z,360
2018-11-20T09:45:55.974Z,360
2018-11-20T09:47:03.621Z,360
2018-11-20T09:48:10.969Z,360
2018-11-20T09:49:17.632Z,359
2018-11-20T09:50:24.854Z,360
2018-11-20T09:51:32.054Z,360
2018-11-20T09:52:39.003Z,360
2018-11-20T09:53:45.757Z,363
2018-11-20T09:54:52.418Z,364
2018-11-20T09:55:59.355Z,367
2018-11-20T09:57:06.029Z,368
2018-11-20T09:58:12.686Z,371
2018-11-20T09:59:20.223Z,374
2018-11-20T10:00:27.638Z,377
2018-11-20T10:01:34.592Z,379
2018-11-20T10:02:41.798Z,381
2018-11-20T10:03:48.975Z,383
2018-11-20T10:04:56.417Z,385
2018-11-20T10:06:03.631Z,385
2018-11-20T10:07:10.816Z,391
2018-11-20T10:08:18.257Z,391
2018-11-20T10:09:25.472Z,388
2018-11-20T10:10:32.688Z,389
2018-11-20T10:11:39.902Z,390
2018-11-20T10:12:47.113Z,400
2018-11-20T10:13:53.769Z,398
2018-11-20T10:15:01.463Z,400
2018-11-20T10:16:09.353Z,398
2018-11-20T10:17:16.551Z,406
2018-11-20T10:18:23.516Z,407
2018-11-20T10:19:30.751Z,414
2018-11-20T10:20:37.695Z,422
2018-11-20T10:21:45.174Z,421
2018-11-20T10:22:52.159Z,410
2018-11-20T10:23:59.374Z,404
2018-11-20T10:25:06.415Z,417
2018-11-20T10:26:13.891Z,412
2018-11-20T10:27:21.187Z,410
2018-11-20T10:28:28.393Z,407
2018-11-20T10:29:35.319Z,401
2018-11-20T10:30:42.536Z,402
2018-11-20T10:31:49.474Z,414
2018-11-20T10:32:56.694Z,413
2018-11-20T10:34:18.270Z,424
2018-11-20T10:35:25.688Z,415
2018-11-20T10:36:32.635Z,409
2018-11-20T10:37:39.856Z,407
2018-11-20T10:38:46.789Z,402
2018-11-20T10:39:53.462Z,401
2018-11-20T10:41:00.664Z,401
2018-11-20T10:42:07.897Z,420
2018-11-20T10:43:14.828Z,415
2018-11-20T10:44:21.769Z,409
2018-11-20T10:45:29.420Z,409
2018-11-20T10:46:37.007Z,416
2018-11-20T10:47:43.953Z,417
2018-11-20T10:48:50.896Z,417
2018-11-20T10:49:58.096Z,416
2018-11-20T10:51:05.450Z,418
2018-11-20T10:52:12.414Z,414
2018-11-20T10:53:19.613Z,411
2018-11-20T10:54:26.540Z,408
2018-11-20T10:55:33.220Z,407
2018-11-20T10:56:39.863Z,410
2018-11-20T10:57:46.802Z,414
2018-11-20T10:58:53.743Z,415
2018-11-20T11:00:00.962Z,425
2018-11-20T11:01:07.625Z,425
2018-11-20T11:02:14.305Z,422
2018-11-20T11:03:21.520Z,422
2018-11-20T11:04:28.150Z,422
2018-11-20T11:05:34.796Z,421
2018-11-20T11:06:42.614Z,421
2018-11-20T11:07:50.417Z,416
2018-11-20T11:08:57.957Z,412
2018-11-20T11:10:04.901Z,411
2018-11-20T11:11:11.820Z,414
2018-11-20T11:12:19.037Z,418
2018-11-20T11:13:25.709Z,420
2018-11-20T11:14:33.264Z,416
2018-11-20T11:15:40.318Z,411
2018-11-20T11:16:47.525Z,408
2018-11-20T11:17:54.207Z,409
2018-11-20T11:19:01.409Z,407
2018-11-20T11:20:08.707Z,407
2018-11-20T11:21:15.626Z,405
2018-11-20T11:22:22.569Z,405
2018-11-20T11:23:29.494Z,405
2018-11-20T11:24:36.164Z,405
2018-11-20T11:25:43.371Z,404
2018-11-20T11:26:50.589Z,404
2018-11-20T11:27:57.240Z,404
2018-11-20T11:29:04.493Z,405
2018-11-20T11:30:11.743Z,406
2018-11-20T11:31:18.976Z,405
2018-11-20T11:32:26.183Z,404
2018-11-20T11:33:33.163Z,404
2018-11-20T11:34:39.820Z,406
2018-11-20T11:35:47.036Z,407
2018-11-20T11:36:53.972Z,406
2018-11-20T11:38:00.630Z,406
2018-11-20T11:39:07.561Z,406
2018-11-20T11:40:14.789Z,406
2018-11-20T11:41:21.711Z,407
2018-11-20T11:42:28.925Z,408
2018-11-20T11:43:36.135Z,408
2018-11-20T11:44:43.343Z,408
2018-11-20T11:45:50.331Z,408
2018-11-20T11:46:57.000Z,408
2018-11-20T11:48:03.671Z,407
2018-11-20T11:49:10.331Z,407
2018-11-20T11:50:17.534Z,407
2018-11-20T11:51:26.129Z,407
2018-11-20T11:52:32.790Z,407
2018-11-20T11:53:39.734Z,407
2018-11-20T11:54:46.705Z,407
2018-11-20T11:55:53.943Z,407
2018-11-20T11:57:00.882Z,408
2018-11-20T11:58:07.538Z,408
2018-11-20T11:59:14.468Z,408
2018-11-20T12:00:21.694Z,408
2018-11-20T12:03:41.638Z,409
2018-11-20T12:04:48.563Z,410
2018-11-20T12:05:57.007Z,410
2018-11-20T12:07:03.947Z,410
2018-11-20T12:08:10.602Z,410
2018-11-20T12:09:17.815Z,410
2018-11-20T12:10:25.020Z,411
2018-11-20T12:11:31.417Z,410
2018-11-20T12:12:38.062Z,411
2018-11-20T12:13:45.280Z,412
2018-11-20T12:14:52.577Z,411
2018-11-20T12:15:59.794Z,412
2018-11-20T12:17:07.005Z,413
2018-11-20T12:18:14.229Z,413
2018-11-20T12:19:21.158Z,414
2018-11-20T12:20:28.377Z,415
2018-11-20T12:21:35.334Z,415
2018-11-20T12:22:42.547Z,415
2018-11-20T12:23:49.749Z,416
2018-11-20T12:24:56.969Z,416
2018-11-20T12:26:03.622Z,417
2018-11-20T12:27:10.288Z,418
2018-11-20T12:28:17.361Z,418
2018-11-20T12:29:24.574Z,418
2018-11-20T12:30:35.358Z,418
2018-11-20T12:31:43.512Z,419
2018-11-20T12:32:50.442Z,419
2018-11-20T12:34:01.060Z,419
2018-11-20T12:35:07.999Z,419
2018-11-20T12:36:15.221Z,417
2018-11-20T12:37:25.024Z,416
2018-11-20T12:38:32.245Z,416
2018-11-20T12:39:41.826Z,414
2018-11-20T12:40:51.649Z,414
2018-11-20T12:41:58.846Z,414
2018-11-20T12:43:05.797Z,414
2018-11-20T12:44:12.723Z,414
2018-11-20T12:45:19.942Z,414
2018-11-20T12:46:27.144Z,415
2018-11-20T12:47:34.090Z,414
2018-11-20T12:48:41.388Z,414
2018-11-20T12:49:49.678Z,414
2018-11-20T12:50:58.963Z,415
2018-11-20T12:52:06.937Z,414
2018-11-20T12:53:14.151Z,414
2018-11-20T12:54:21.365Z,414
2018-11-20T12:55:28.316Z,413
2018-11-20T12:56:35.537Z,413
2018-11-20T12:57:42.479Z,413
2018-11-20T12:58:49.148Z,413
2018-11-20T12:59:56.363Z,412
2018-11-20T13:01:03.592Z,412
2018-11-20T13:02:10.795Z,412
2018-11-20T13:03:18.016Z,412
2018-11-20T13:04:24.939Z,412
2018-11-20T13:05:32.172Z,411
2018-11-20T13:06:39.108Z,411
2018-11-20T13:07:46.726Z,411
2018-11-20T13:08:53.382Z,411
2018-11-20T13:10:00.896Z,411
2018-11-20T13:11:08.160Z,411
2018-11-20T13:12:15.113Z,412
2018-11-20T13:13:22.318Z,412
2018-11-20T13:14:29.528Z,412
2018-11-20T13:15:36.462Z,412
2018-11-20T13:16:43.121Z,412
2018-11-20T13:17:50.341Z,411
2018-11-20T13:18:56.996Z,412
2018-11-20T13:20:08.289Z,411
2018-11-20T13:21:14.634Z,412
2018-11-20T13:22:21.557Z,411
2018-11-20T13:23:32.081Z,412
2018-11-20T13:24:39.288Z,412
2018-11-20T13:25:46.515Z,413
2018-11-20T13:26:53.445Z,413
2018-11-20T13:28:00.113Z,413
2018-11-20T13:29:07.317Z,413
2018-11-20T13:30:14.547Z,413
2018-11-20T13:31:21.744Z,412
2018-11-20T13:32:28.723Z,413
2018-11-20T13:33:35.664Z,413
2018-11-20T13:34:42.638Z,412
2018-11-20T13:35:49.572Z,413
2018-11-20T13:36:56.797Z,413
2018-11-20T13:38:04.005Z,413
2018-11-20T13:39:14.396Z,413
2018-11-20T13:40:21.326Z,412
2018-11-20T13:41:28.282Z,413
2018-11-20T13:42:34.940Z,413
2018-11-20T13:43:41.613Z,414
2018-11-20T13:44:48.845Z,415
2018-11-20T13:45:56.073Z,414
2018-11-20T13:47:04.736Z,414
2018-11-20T13:48:11.967Z,416
2018-11-20T13:49:18.616Z,416
2018-11-20T13:50:25.293Z,416
2018-11-20T13:51:32.865Z,417
2018-11-20T13:52:40.077Z,416
2018-11-20T13:53:47.022Z,416
2018-11-20T13:54:54.393Z,417
2018-11-20T13:56:01.321Z,416
2018-11-20T13:57:08.558Z,416
2018-11-20T13:58:14.940Z,416
2018-11-20T13:59:21.888Z,416
2018-11-20T14:00:28.830Z,415
2018-11-20T14:01:35.769Z,415
2018-11-20T14:02:42.977Z,415
2018-11-20T14:03:49.644Z,415
2018-11-20T14:04:56.590Z,415
2018-11-20T14:06:03.825Z,415
2018-11-20T14:07:10.761Z,415
2018-11-20T14:08:17.425Z,416
2018-11-20T14:09:24.634Z,416
2018-11-20T14:10:31.572Z,416
2018-11-20T14:11:38.504Z,416
2018-11-20T14:12:45.732Z,416
2018-11-20T14:13:52.941Z,416
2018-11-20T14:14:59.896Z,416
2018-11-20T14:16:07.092Z,416
2018-11-20T14:17:13.772Z,416
2018-11-20T14:18:20.740Z,416
2018-11-20T14:19:27.973Z,417
2018-11-20T14:20:35.184Z,416
2018-11-20T14:21:42.406Z,417
2018-11-20T14:22:49.341Z,417
2018-11-20T14:23:56.560Z,417
2018-11-20T14:25:03.488Z,417
2018-11-20T14:26:10.434Z,417
2018-11-20T14:27:17.409Z,418
2018-11-20T14:28:24.635Z,417
2018-11-20T14:29:31.025Z,417
2018-11-20T14:30:38.236Z,417
2018-11-20T14:31:45.446Z,417
2018-11-20T14:32:52.114Z,417
2018-11-20T14:33:59.052Z,417
2018-11-20T14:35:06.274Z,417
2018-11-20T14:36:13.481Z,418
2018-11-20T14:37:20.428Z,418
2018-11-20T14:38:27.637Z,418
2018-11-20T14:39:34.322Z,418
2018-11-20T14:40:41.249Z,418
2018-11-20T14:41:48.193Z,419
2018-11-20T14:42:54.849Z,420
2018-11-20T14:44:02.079Z,420
2018-11-20T14:45:09.277Z,420
2018-11-20T14:46:16.498Z,420
2018-11-20T14:47:23.706Z,420
2018-11-20T14:48:30.647Z,420
2018-11-20T14:49:42.047Z,419
2018-11-20T14:50:49.015Z,420
2018-11-20T14:51:55.668Z,419
2018-11-20T14:53:02.457Z,420
2018-11-20T14:54:09.387Z,420
2018-11-20T14:55:16.607Z,420
2018-11-20T14:56:23.271Z,421
2018-11-20T14:57:29.933Z,420
2018-11-20T14:58:37.133Z,421
2018-11-20T14:59:44.108Z,421
2018-11-20T15:00:51.296Z,421
2018-11-20T15:01:58.526Z,421
2018-11-20T15:03:05.727Z,421
2018-11-20T15:04:12.662Z,422
2018-11-20T15:05:19.584Z,421
2018-11-20T15:06:26.805Z,421
2018-11-20T15:07:34.006Z,421
2018-11-20T15:08:40.942Z,421
2018-11-20T15:09:47.868Z,422
2018-11-20T15:10:54.538Z,422
2018-11-20T15:12:01.210Z,421
2018-11-20T15:13:07.863Z,421
2018-11-20T15:14:14.516Z,423
2018-11-20T15:15:21.515Z,422
2018-11-20T15:16:28.437Z,422
2018-11-20T15:17:35.394Z,422
2018-11-20T15:18:45.947Z,422
2018-11-20T15:19:53.172Z,422
2018-11-20T15:21:00.101Z,422
2018-11-20T15:22:07.342Z,422
2018-11-20T15:23:14.274Z,423
2018-11-20T15:24:21.494Z,423
2018-11-20T15:25:28.696Z,422
2018-11-20T15:26:35.910Z,423